Terminal Aerodrome Forecast
Issued by NWS Duluth, MN

Home | Current Version | Previous Version | Text Only | Print | Product List | Glossary On
Versions: 1 2 3 4 5 6 7 8 9 10 11 12 13 14 15 16 17 18 19 20 21 22
000
FTUS43 KDLH 262200 AAA
TAFDLH
TAF AMD
KDLH 262200Z 2622/2718 35007KT P6SM -SN SCT015 OVC030
      TEMPO 2622/2702 OVC015
     FM270600 34004KT P6SM SCT025 SCT150
     FM271200 33010KT P6SM SCT120=

USA.gov is the U.S. government's official web portal to all federal, state and local government web resources and services.